sensor_id;sensor_type;location;lat;lon;timestamp;P1;durP1;ratioP1;P2;durP2;ratioP2
21505;SDS011;10914;48.886;9.394;2023-09-19T00:00:33;21.63;;;20.48;;
21505;SDS011;10914;48.886;9.394;2023-09-19T00:02:59;21.23;;;20.23;;
21505;SDS011;10914;48.886;9.394;2023-09-19T00:05:25;24.02;;;22.92;;
21505;SDS011;10914;48.886;9.394;2023-09-19T00:07:53;20.23;;;19.23;;
21505;SDS011;10914;48.886;9.394;2023-09-19T00:10:24;19.75;;;18.75;;
21505;SDS011;10914;48.886;9.394;2023-09-19T00:12:51;19.73;;;18.65;;
21505;SDS011;10914;48.886;9.394;2023-09-19T00:15:23;20.70;;;19.50;;
21505;SDS011;10914;48.886;9.394;2023-09-19T00:17:49;20.77;;;19.77;;
21505;SDS011;10914;48.886;9.394;2023-09-19T00:20:17;19.95;;;19.02;;
21505;SDS011;10914;48.886;9.394;2023-09-19T00:22:43;20.30;;;19.20;;
21505;SDS011;10914;48.886;9.394;2023-09-19T00:25:08;22.75;;;21.58;;
21505;SDS011;10914;48.886;9.394;2023-09-19T00:27:34;20.25;;;19.25;;
21505;SDS011;10914;48.886;9.394;2023-09-19T00:30:00;19.98;;;19.08;;
21505;SDS011;10914;48.886;9.394;2023-09-19T00:32:25;21.35;;;20.25;;
21505;SDS011;10914;48.886;9.394;2023-09-19T00:34:55;21.27;;;20.08;;
21505;SDS011;10914;48.886;9.394;2023-09-19T00:37:21;20.63;;;19.50;;
21505;SDS011;10914;48.886;9.394;2023-09-19T00:39:46;20.63;;;19.50;;
21505;SDS011;10914;48.886;9.394;2023-09-19T00:42:17;20.67;;;19.70;;
21505;SDS011;10914;48.886;9.394;2023-09-19T00:44:44;19.88;;;18.88;;
21505;SDS011;10914;48.886;9.394;2023-09-19T00:47:09;21.03;;;19.93;;
21505;SDS011;10914;48.886;9.394;2023-09-19T00:49:40;20.42;;;19.42;;
21505;SDS011;10914;48.886;9.394;2023-09-19T00:52:05;21.17;;;19.97;;
21505;SDS011;10914;48.886;9.394;2023-09-19T00:54:31;19.15;;;18.25;;
21505;SDS011;10914;48.886;9.394;2023-09-19T00:56:58;21.13;;;20.00;;
21505;SDS011;10914;48.886;9.394;2023-09-19T00:59:23;20.10;;;19.00;;
21505;SDS011;10914;48.886;9.394;2023-09-19T01:01:49;20.17;;;19.17;;
21505;SDS011;10914;48.886;9.394;2023-09-19T01:04:18;22.42;;;21.15;;
21505;SDS011;10914;48.886;9.394;2023-09-19T01:06:43;20.57;;;19.33;;
21505;SDS011;10914;48.886;9.394;2023-09-19T01:09:10;21.98;;;20.85;;
21505;SDS011;10914;48.886;9.394;2023-09-19T01:11:38;23.35;;;22.23;;
21505;SDS011;10914;48.886;9.394;2023-09-19T01:17:09;21.42;;;20.42;;
21505;SDS011;10914;48.886;9.394;2023-09-19T01:22:14;20.45;;;19.45;;
21505;SDS011;10914;48.886;9.394;2023-09-19T01:29:46;21.55;;;20.45;;
21505;SDS011;10914;48.886;9.394;2023-09-19T01:32:13;21.75;;;20.55;;
21505;SDS011;10914;48.886;9.394;2023-09-19T01:37:12;25.15;;;23.75;;
21505;SDS011;10914;48.886;9.394;2023-09-19T01:39:37;27.17;;;25.90;;
21505;SDS011;10914;48.886;9.394;2023-09-19T01:47:34;19.50;;;18.50;;
21505;SDS011;10914;48.886;9.394;2023-09-19T01:50:11;19.08;;;18.17;;
21505;SDS011;10914;48.886;9.394;2023-09-19T01:52:38;18.70;;;17.80;;
21505;SDS011;10914;48.886;9.394;2023-09-19T01:55:08;19.63;;;18.73;;
21505;SDS011;10914;48.886;9.394;2023-09-19T02:00:35;19.52;;;18.38;;
21505;SDS011;10914;48.886;9.394;2023-09-19T02:03:02;19.15;;;18.15;;
21505;SDS011;10914;48.886;9.394;2023-09-19T02:05:28;18.95;;;18.05;;
21505;SDS011;10914;48.886;9.394;2023-09-19T02:07:53;18.90;;;18.00;;
21505;SDS011;10914;48.886;9.394;2023-09-19T02:10:18;18.92;;;18.02;;
21505;SDS011;10914;48.886;9.394;2023-09-19T02:12:44;19.95;;;18.95;;
21505;SDS011;10914;48.886;9.394;2023-09-19T02:15:10;19.08;;;18.00;;
21505;SDS011;10914;48.886;9.394;2023-09-19T02:17:35;19.30;;;18.30;;
21505;SDS011;10914;48.886;9.394;2023-09-19T02:20:00;19.40;;;18.40;;
21505;SDS011;10914;48.886;9.394;2023-09-19T02:22:25;19.10;;;18.20;;
21505;SDS011;10914;48.886;9.394;2023-09-19T02:24:51;20.80;;;19.80;;
21505;SDS011;10914;48.886;9.394;2023-09-19T02:27:17;21.60;;;20.50;;
21505;SDS011;10914;48.886;9.394;2023-09-19T02:29:43;18.83;;;17.92;;
21505;SDS011;10914;48.886;9.394;2023-09-19T02:32:08;19.33;;;18.38;;
21505;SDS011;10914;48.886;9.394;2023-09-19T02:34:34;19.00;;;18.10;;
21505;SDS011;10914;48.886;9.394;2023-09-19T02:37:01;20.15;;;19.15;;
21505;SDS011;10914;48.886;9.394;2023-09-19T02:39:26;20.00;;;19.10;;
21505;SDS011;10914;48.886;9.394;2023-09-19T02:41:52;21.58;;;20.58;;
21505;SDS011;10914;48.886;9.394;2023-09-19T02:44:17;21.10;;;20.10;;
21505;SDS011;10914;48.886;9.394;2023-09-19T02:46:44;24.83;;;23.55;;
21505;SDS011;10914;48.886;9.394;2023-09-19T02:49:09;21.30;;;20.30;;
21505;SDS011;10914;48.886;9.394;2023-09-19T02:51:34;19.20;;;18.13;;
21505;SDS011;10914;48.886;9.394;2023-09-19T02:53:59;20.65;;;19.60;;
21505;SDS011;10914;48.886;9.394;2023-09-19T02:56:25;19.60;;;18.52;;
21505;SDS011;10914;48.886;9.394;2023-09-19T02:58:50;19.70;;;18.70;;
21505;SDS011;10914;48.886;9.394;2023-09-19T03:01:16;21.40;;;20.30;;
21505;SDS011;10914;48.886;9.394;2023-09-19T03:03:43;22.65;;;21.48;;
21505;SDS011;10914;48.886;9.394;2023-09-19T03:06:08;25.48;;;24.17;;
21505;SDS011;10914;48.886;9.394;2023-09-19T03:08:38;28.42;;;27.02;;
21505;SDS011;10914;48.886;9.394;2023-09-19T03:11:04;44.33;;;42.25;;
21505;SDS011;10914;48.886;9.394;2023-09-19T03:13:31;40.78;;;38.88;;
21505;SDS011;10914;48.886;9.394;2023-09-19T03:15:56;32.67;;;31.15;;
21505;SDS011;10914;48.886;9.394;2023-09-19T03:18:23;33.20;;;31.60;;
21505;SDS011;10914;48.886;9.394;2023-09-19T03:20:55;35.10;;;33.47;;
21505;SDS011;10914;48.886;9.394;2023-09-19T03:23:20;35.83;;;34.13;;
21505;SDS011;10914;48.886;9.394;2023-09-19T03:25:45;44.83;;;42.70;;
21505;SDS011;10914;48.886;9.394;2023-09-19T03:28:11;39.63;;;37.80;;
21505;SDS011;10914;48.886;9.394;2023-09-19T03:30:36;38.53;;;36.72;;
21505;SDS011;10914;48.886;9.394;2023-09-19T03:33:01;23.57;;;22.47;;
21505;SDS011;10914;48.886;9.394;2023-09-19T03:35:26;27.10;;;25.85;;
21505;SDS011;10914;48.886;9.394;2023-09-19T03:37:51;22.37;;;21.37;;
21505;SDS011;10914;48.886;9.394;2023-09-19T03:40:17;24.92;;;23.73;;
21505;SDS011;10914;48.886;9.394;2023-09-19T03:42:45;23.48;;;22.38;;
21505;SDS011;10914;48.886;9.394;2023-09-19T03:45:11;23.25;;;22.15;;
21505;SDS011;10914;48.886;9.394;2023-09-19T03:47:37;23.30;;;22.08;;
21505;SDS011;10914;48.886;9.394;2023-09-19T03:50:03;29.75;;;28.33;;
21505;SDS011;10914;48.886;9.394;2023-09-19T03:52:28;20.95;;;19.95;;
21505;SDS011;10914;48.886;9.394;2023-09-19T03:54:53;26.37;;;25.17;;
21505;SDS011;10914;48.886;9.394;2023-09-19T03:57:19;20.15;;;19.15;;
21505;SDS011;10914;48.886;9.394;2023-09-19T03:59:45;20.58;;;19.55;;
21505;SDS011;10914;48.886;9.394;2023-09-19T04:02:11;20.42;;;19.42;;
21505;SDS011;10914;48.886;9.394;2023-09-19T04:04:46;20.38;;;19.38;;
21505;SDS011;10914;48.886;9.394;2023-09-19T04:07:12;20.13;;;19.13;;
21505;SDS011;10914;48.886;9.394;2023-09-19T04:09:37;25.48;;;24.17;;
21505;SDS011;10914;48.886;9.394;2023-09-19T04:12:03;28.67;;;27.10;;
21505;SDS011;10914;48.886;9.394;2023-09-19T04:14:28;40.50;;;38.60;;
21505;SDS011;10914;48.886;9.394;2023-09-19T04:16:54;50.72;;;48.20;;
21505;SDS011;10914;48.886;9.394;2023-09-19T04:19:19;34.80;;;32.95;;
21505;SDS011;10914;48.886;9.394;2023-09-19T04:21:49;23.08;;;21.88;;
21505;SDS011;10914;48.886;9.394;2023-09-19T04:24:14;25.05;;;23.83;;
21505;SDS011;10914;48.886;9.394;2023-09-19T04:26:39;25.00;;;23.70;;
21505;SDS011;10914;48.886;9.394;2023-09-19T04:29:04;46.80;;;44.63;;
21505;SDS011;10914;48.886;9.394;2023-09-19T04:31:31;37.65;;;35.83;;
21505;SDS011;10914;48.886;9.394;2023-09-19T04:33:56;44.13;;;41.95;;
21505;SDS011;10914;48.886;9.394;2023-09-19T04:36:22;84.75;;;80.60;;
21505;SDS011;10914;48.886;9.394;2023-09-19T04:38:47;174.80;;;166.85;;
21505;SDS011;10914;48.886;9.394;2023-09-19T04:41:12;202.47;;;193.23;;
21505;SDS011;10914;48.886;9.394;2023-09-19T04:43:38;167.48;;;159.88;;
21505;SDS011;10914;48.886;9.394;2023-09-19T04:46:03;170.17;;;162.20;;
21505;SDS011;10914;48.886;9.394;2023-09-19T04:48:31;129.65;;;123.80;;
21505;SDS011;10914;48.886;9.394;2023-09-19T04:50:56;144.38;;;137.63;;
21505;SDS011;10914;48.886;9.394;2023-09-19T04:53:22;138.57;;;132.13;;
21505;SDS011;10914;48.886;9.394;2023-09-19T04:55:51;86.13;;;82.20;;
21505;SDS011;10914;48.886;9.394;2023-09-19T04:58:17;59.50;;;56.63;;
21505;SDS011;10914;48.886;9.394;2023-09-19T05:00:44;58.38;;;55.67;;
21505;SDS011;10914;48.886;9.394;2023-09-19T05:03:09;46.00;;;43.80;;
21505;SDS011;10914;48.886;9.394;2023-09-19T05:05:34;62.03;;;59.17;;
21505;SDS011;10914;48.886;9.394;2023-09-19T05:08:00;84.35;;;80.53;;
21505;SDS011;10914;48.886;9.394;2023-09-19T05:10:25;44.38;;;42.17;;
21505;SDS011;10914;48.886;9.394;2023-09-19T05:12:52;36.20;;;34.50;;
21505;SDS011;10914;48.886;9.394;2023-09-19T05:15:17;30.02;;;28.52;;
21505;SDS011;10914;48.886;9.394;2023-09-19T05:17:49;34.05;;;32.47;;
21505;SDS011;10914;48.886;9.394;2023-09-19T05:20:15;50.83;;;48.40;;
21505;SDS011;10914;48.886;9.394;2023-09-19T05:22:49;49.90;;;47.60;;
21505;SDS011;10914;48.886;9.394;2023-09-19T05:25:15;38.72;;;36.80;;
21505;SDS011;10914;48.886;9.394;2023-09-19T05:27:43;41.10;;;38.97;;
21505;SDS011;10914;48.886;9.394;2023-09-19T05:30:08;25.70;;;24.30;;
21505;SDS011;10914;48.886;9.394;2023-09-19T05:32:34;25.50;;;24.30;;
21505;SDS011;10914;48.886;9.394;2023-09-19T05:34:59;30.60;;;29.00;;
21505;SDS011;10914;48.886;9.394;2023-09-19T05:37:24;33.00;;;31.30;;
21505;SDS011;10914;48.886;9.394;2023-09-19T05:39:51;30.60;;;29.13;;
21505;SDS011;10914;48.886;9.394;2023-09-19T05:42:16;37.63;;;35.80;;
21505;SDS011;10914;48.886;9.394;2023-09-19T05:44:42;35.90;;;34.20;;
21505;SDS011;10914;48.886;9.394;2023-09-19T05:47:07;28.10;;;26.60;;
21505;SDS011;10914;48.886;9.394;2023-09-19T05:49:34;45.00;;;42.90;;
21505;SDS011;10914;48.886;9.394;2023-09-19T05:51:59;83.35;;;79.40;;
21505;SDS011;10914;48.886;9.394;2023-09-19T05:54:25;44.25;;;41.83;;
21505;SDS011;10914;48.886;9.394;2023-09-19T05:56:50;35.63;;;33.92;;
21505;SDS011;10914;48.886;9.394;2023-09-19T05:59:18;42.45;;;40.45;;
21505;SDS011;10914;48.886;9.394;2023-09-19T06:01:43;31.50;;;29.90;;
21505;SDS011;10914;48.886;9.394;2023-09-19T06:04:08;38.90;;;36.97;;
21505;SDS011;10914;48.886;9.394;2023-09-19T06:06:34;43.50;;;41.40;;
21505;SDS011;10914;48.886;9.394;2023-09-19T06:09:05;113.82;;;108.55;;
21505;SDS011;10914;48.886;9.394;2023-09-19T06:11:34;163.00;;;155.15;;
21505;SDS011;10914;48.886;9.394;2023-09-19T06:14:00;190.10;;;180.98;;
21505;SDS011;10914;48.886;9.394;2023-09-19T06:16:27;242.82;;;231.10;;
21505;SDS011;10914;48.886;9.394;2023-09-19T06:18:52;140.38;;;133.90;;
21505;SDS011;10914;48.886;9.394;2023-09-19T06:21:18;112.30;;;107.03;;
21505;SDS011;10914;48.886;9.394;2023-09-19T06:23:43;119.53;;;113.80;;
21505;SDS011;10914;48.886;9.394;2023-09-19T06:26:08;75.38;;;71.82;;
21505;SDS011;10914;48.886;9.394;2023-09-19T06:28:34;43.80;;;41.58;;
21505;SDS011;10914;48.886;9.394;2023-09-19T06:30:59;27.83;;;26.33;;
21505;SDS011;10914;48.886;9.394;2023-09-19T06:33:27;39.28;;;37.30;;
21505;SDS011;10914;48.886;9.394;2023-09-19T06:35:52;31.87;;;30.30;;
21505;SDS011;10914;48.886;9.394;2023-09-19T06:38:24;38.88;;;36.90;;
21505;SDS011;10914;48.886;9.394;2023-09-19T06:40:49;47.13;;;44.65;;
21505;SDS011;10914;48.886;9.394;2023-09-19T06:43:14;25.83;;;24.23;;
21505;SDS011;10914;48.886;9.394;2023-09-19T06:45:39;40.17;;;38.13;;
21505;SDS011;10914;48.886;9.394;2023-09-19T06:48:05;42.67;;;40.35;;
21505;SDS011;10914;48.886;9.394;2023-09-19T06:50:30;56.25;;;53.53;;
21505;SDS011;10914;48.886;9.394;2023-09-19T06:52:56;29.25;;;27.70;;
21505;SDS011;10914;48.886;9.394;2023-09-19T06:55:22;68.45;;;65.07;;
21505;SDS011;10914;48.886;9.394;2023-09-19T06:57:53;31.20;;;29.55;;
21505;SDS011;10914;48.886;9.394;2023-09-19T07:00:19;39.50;;;37.47;;
21505;SDS011;10914;48.886;9.394;2023-09-19T07:05:26;32.42;;;30.52;;
21505;SDS011;10914;48.886;9.394;2023-09-19T07:07:52;22.85;;;21.55;;
21505;SDS011;10914;48.886;9.394;2023-09-19T07:10:19;34.15;;;32.50;;
21505;SDS011;10914;48.886;9.394;2023-09-19T07:12:45;45.28;;;42.92;;
21505;SDS011;10914;48.886;9.394;2023-09-19T07:15:10;49.27;;;46.80;;
21505;SDS011;10914;48.886;9.394;2023-09-19T07:17:35;45.63;;;43.27;;
21505;SDS011;10914;48.886;9.394;2023-09-19T07:20:01;27.92;;;26.52;;
21505;SDS011;10914;48.886;9.394;2023-09-19T07:22:32;27.58;;;26.08;;
21505;SDS011;10914;48.886;9.394;2023-09-19T07:24:57;25.50;;;24.10;;
21505;SDS011;10914;48.886;9.394;2023-09-19T07:27:22;27.30;;;25.80;;
21505;SDS011;10914;48.886;9.394;2023-09-19T07:29:48;23.05;;;21.85;;
21505;SDS011;10914;48.886;9.394;2023-09-19T07:32:13;22.98;;;21.70;;
21505;SDS011;10914;48.886;9.394;2023-09-19T07:34:39;22.00;;;20.70;;
21505;SDS011;10914;48.886;9.394;2023-09-19T07:37:05;21.63;;;20.42;;
21505;SDS011;10914;48.886;9.394;2023-09-19T07:39:31;21.40;;;20.05;;
21505;SDS011;10914;48.886;9.394;2023-09-19T07:41:56;22.07;;;20.57;;
21505;SDS011;10914;48.886;9.394;2023-09-19T07:44:21;22.40;;;21.17;;
21505;SDS011;10914;48.886;9.394;2023-09-19T07:46:47;22.20;;;21.10;;
21505;SDS011;10914;48.886;9.394;2023-09-19T07:49:15;22.35;;;21.10;;
21505;SDS011;10914;48.886;9.394;2023-09-19T07:51:42;23.52;;;22.02;;
21505;SDS011;10914;48.886;9.394;2023-09-19T07:54:11;21.95;;;20.45;;
21505;SDS011;10914;48.886;9.394;2023-09-19T07:56:36;25.03;;;23.53;;
21505;SDS011;10914;48.886;9.394;2023-09-19T07:59:02;26.20;;;24.80;;
21505;SDS011;10914;48.886;9.394;2023-09-19T08:01:27;26.90;;;25.50;;
21505;SDS011;10914;48.886;9.394;2023-09-19T08:03:52;28.52;;;26.95;;
21505;SDS011;10914;48.886;9.394;2023-09-19T08:06:18;21.97;;;20.87;;
21505;SDS011;10914;48.886;9.394;2023-09-19T08:08:45;21.65;;;20.38;;
21505;SDS011;10914;48.886;9.394;2023-09-19T08:11:10;27.53;;;25.90;;
21505;SDS011;10914;48.886;9.394;2023-09-19T08:13:37;22.30;;;21.10;;
21505;SDS011;10914;48.886;9.394;2023-09-19T08:16:03;23.00;;;21.70;;
21505;SDS011;10914;48.886;9.394;2023-09-19T08:18:30;22.13;;;20.92;;
21505;SDS011;10914;48.886;9.394;2023-09-19T08:20:55;21.10;;;19.98;;
21505;SDS011;10914;48.886;9.394;2023-09-19T08:23:23;21.10;;;20.00;;
21505;SDS011;10914;48.886;9.394;2023-09-19T08:25:48;20.93;;;19.87;;
21505;SDS011;10914;48.886;9.394;2023-09-19T08:28:13;21.67;;;20.38;;
21505;SDS011;10914;48.886;9.394;2023-09-19T08:30:43;22.63;;;21.40;;
21505;SDS011;10914;48.886;9.394;2023-09-19T08:33:09;21.70;;;20.25;;
21505;SDS011;10914;48.886;9.394;2023-09-19T08:35:34;22.10;;;20.80;;
21505;SDS011;10914;48.886;9.394;2023-09-19T08:38:00;23.00;;;21.88;;
21505;SDS011;10914;48.886;9.394;2023-09-19T08:40:29;21.10;;;19.80;;
21505;SDS011;10914;48.886;9.394;2023-09-19T08:42:58;23.08;;;21.67;;
21505;SDS011;10914;48.886;9.394;2023-09-19T08:45:24;21.47;;;20.40;;
21505;SDS011;10914;48.886;9.394;2023-09-19T08:51:00;20.10;;;19.00;;
21505;SDS011;10914;48.886;9.394;2023-09-19T08:53:47;19.63;;;18.52;;
21505;SDS011;10914;48.886;9.394;2023-09-19T08:56:11;20.40;;;19.13;;
21505;SDS011;10914;48.886;9.394;2023-09-19T08:58:44;20.00;;;18.83;;
21505;SDS011;10914;48.886;9.394;2023-09-19T09:01:09;19.90;;;18.70;;
21505;SDS011;10914;48.886;9.394;2023-09-19T09:03:35;19.95;;;18.80;;
21505;SDS011;10914;48.886;9.394;2023-09-19T09:06:02;19.92;;;18.92;;
21505;SDS011;10914;48.886;9.394;2023-09-19T09:08:27;19.35;;;18.35;;
21505;SDS011;10914;48.886;9.394;2023-09-19T09:10:53;19.45;;;18.38;;
21505;SDS011;10914;48.886;9.394;2023-09-19T09:13:19;19.08;;;18.08;;
21505;SDS011;10914;48.886;9.394;2023-09-19T09:15:44;19.73;;;18.73;;
21505;SDS011;10914;48.886;9.394;2023-09-19T09:18:10;19.63;;;18.63;;
21505;SDS011;10914;48.886;9.394;2023-09-19T09:20:36;20.13;;;19.10;;
21505;SDS011;10914;48.886;9.394;2023-09-19T09:23:01;19.30;;;18.30;;
21505;SDS011;10914;48.886;9.394;2023-09-19T09:25:50;19.38;;;18.27;;
21505;SDS011;10914;48.886;9.394;2023-09-19T09:28:20;19.20;;;18.20;;
21505;SDS011;10914;48.886;9.394;2023-09-19T09:30:46;18.83;;;17.83;;
21505;SDS011;10914;48.886;9.394;2023-09-19T09:33:11;19.10;;;18.10;;
21505;SDS011;10914;48.886;9.394;2023-09-19T09:35:53;19.98;;;18.98;;
21505;SDS011;10914;48.886;9.394;2023-09-19T09:38:21;19.38;;;18.17;;
21505;SDS011;10914;48.886;9.394;2023-09-19T09:40:51;19.00;;;18.00;;
21505;SDS011;10914;48.886;9.394;2023-09-19T09:43:38;19.15;;;17.92;;
21505;SDS011;10914;48.886;9.394;2023-09-19T09:49:00;19.02;;;18.08;;
21505;SDS011;10914;48.886;9.394;2023-09-19T09:51:58;18.73;;;17.77;;
21505;SDS011;10914;48.886;9.394;2023-09-19T09:54:24;20.15;;;19.13;;
21505;SDS011;10914;48.886;9.394;2023-09-19T09:59:19;19.55;;;18.45;;
21505;SDS011;10914;48.886;9.394;2023-09-19T10:01:48;19.00;;;18.00;;
21505;SDS011;10914;48.886;9.394;2023-09-19T10:04:26;19.10;;;18.13;;
21505;SDS011;10914;48.886;9.394;2023-09-19T10:06:53;18.85;;;17.88;;
21505;SDS011;10914;48.886;9.394;2023-09-19T10:09:19;18.57;;;17.57;;
21505;SDS011;10914;48.886;9.394;2023-09-19T10:12:05;18.33;;;17.42;;
21505;SDS011;10914;48.886;9.394;2023-09-19T10:14:30;19.65;;;18.65;;
21505;SDS011;10914;48.886;9.394;2023-09-19T10:16:59;20.45;;;19.25;;
21505;SDS011;10914;48.886;9.394;2023-09-19T10:19:42;20.08;;;18.95;;
21505;SDS011;10914;48.886;9.394;2023-09-19T10:22:11;20.73;;;19.65;;
21505;SDS011;10914;48.886;9.394;2023-09-19T10:24:37;20.58;;;19.52;;
21505;SDS011;10914;48.886;9.394;2023-09-19T10:27:04;20.23;;;19.23;;
21505;SDS011;10914;48.886;9.394;2023-09-19T10:29:31;19.52;;;18.42;;
21505;SDS011;10914;48.886;9.394;2023-09-19T10:31:57;19.77;;;18.77;;
21505;SDS011;10914;48.886;9.394;2023-09-19T10:34:23;20.42;;;19.50;;
21505;SDS011;10914;48.886;9.394;2023-09-19T10:36:50;20.17;;;19.08;;
21505;SDS011;10914;48.886;9.394;2023-09-19T10:39:16;19.33;;;18.42;;
21505;SDS011;10914;48.886;9.394;2023-09-19T10:41:44;19.00;;;18.02;;
21505;SDS011;10914;48.886;9.394;2023-09-19T10:44:12;18.80;;;17.90;;
21505;SDS011;10914;48.886;9.394;2023-09-19T10:46:38;18.90;;;17.90;;
21505;SDS011;10914;48.886;9.394;2023-09-19T10:49:04;18.07;;;17.17;;
21505;SDS011;10914;48.886;9.394;2023-09-19T10:51:29;17.73;;;16.80;;
21505;SDS011;10914;48.886;9.394;2023-09-19T10:54:01;16.77;;;15.98;;
21505;SDS011;10914;48.886;9.394;2023-09-19T10:56:32;18.55;;;17.65;;
21505;SDS011;10914;48.886;9.394;2023-09-19T11:01:41;18.00;;;17.10;;
21505;SDS011;10914;48.886;9.394;2023-09-19T11:04:23;17.50;;;16.60;;
21505;SDS011;10914;48.886;9.394;2023-09-19T11:07:02;17.75;;;16.85;;
21505;SDS011;10914;48.886;9.394;2023-09-19T11:09:45;17.52;;;16.63;;
21505;SDS011;10914;48.886;9.394;2023-09-19T11:15:06;17.30;;;16.50;;
21505;SDS011;10914;48.886;9.394;2023-09-19T11:17:36;18.92;;;17.92;;
21505;SDS011;10914;48.886;9.394;2023-09-19T11:36:05;15.85;;;14.95;;
21505;SDS011;10914;48.886;9.394;2023-09-19T11:43:49;16.02;;;15.32;;
21505;SDS011;10914;48.886;9.394;2023-09-19T11:46:15;19.02;;;17.92;;
21505;SDS011;10914;48.886;9.394;2023-09-19T11:48:41;16.20;;;15.40;;
21505;SDS011;10914;48.886;9.394;2023-09-19T11:51:10;17.88;;;16.83;;
21505;SDS011;10914;48.886;9.394;2023-09-19T11:53:40;15.75;;;14.95;;
21505;SDS011;10914;48.886;9.394;2023-09-19T11:56:08;16.42;;;15.35;;
21505;SDS011;10914;48.886;9.394;2023-09-19T11:58:35;17.15;;;16.20;;
21505;SDS011;10914;48.886;9.394;2023-09-19T12:01:00;17.02;;;16.13;;
21505;SDS011;10914;48.886;9.394;2023-09-19T12:03:29;17.63;;;16.83;;
21505;SDS011;10914;48.886;9.394;2023-09-19T12:05:55;17.60;;;16.70;;
21505;SDS011;10914;48.886;9.394;2023-09-19T12:08:20;18.02;;;16.92;;
21505;SDS011;10914;48.886;9.394;2023-09-19T12:10:50;19.17;;;18.27;;
21505;SDS011;10914;48.886;9.394;2023-09-19T12:13:19;20.70;;;19.70;;
21505;SDS011;10914;48.886;9.394;2023-09-19T12:15:44;22.60;;;21.40;;
21505;SDS011;10914;48.886;9.394;2023-09-19T12:18:31;18.30;;;17.30;;
21505;SDS011;10914;48.886;9.394;2023-09-19T12:20:57;17.90;;;16.80;;
21505;SDS011;10914;48.886;9.394;2023-09-19T12:23:23;19.67;;;18.67;;
21505;SDS011;10914;48.886;9.394;2023-09-19T12:25:48;19.55;;;18.55;;
21505;SDS011;10914;48.886;9.394;2023-09-19T12:28:17;21.00;;;19.92;;
21505;SDS011;10914;48.886;9.394;2023-09-19T12:30:42;19.85;;;18.85;;
21505;SDS011;10914;48.886;9.394;2023-09-19T12:33:15;18.70;;;17.80;;
21505;SDS011;10914;48.886;9.394;2023-09-19T12:35:40;17.20;;;16.40;;
21505;SDS011;10914;48.886;9.394;2023-09-19T12:38:05;17.73;;;16.83;;
21505;SDS011;10914;48.886;9.394;2023-09-19T12:40:32;16.52;;;15.63;;
21505;SDS011;10914;48.886;9.394;2023-09-19T12:42:59;16.83;;;15.98;;
21505;SDS011;10914;48.886;9.394;2023-09-19T12:45:24;16.80;;;16.00;;
21505;SDS011;10914;48.886;9.394;2023-09-19T12:50:34;17.08;;;16.27;;
21505;SDS011;10914;48.886;9.394;2023-09-19T12:52:59;17.07;;;16.17;;
21505;SDS011;10914;48.886;9.394;2023-09-19T12:55:26;17.45;;;16.48;;
21505;SDS011;10914;48.886;9.394;2023-09-19T13:00:32;15.80;;;15.00;;
21505;SDS011;10914;48.886;9.394;2023-09-19T13:03:09;23.92;;;22.73;;
21505;SDS011;10914;48.886;9.394;2023-09-19T13:05:50;17.20;;;16.40;;
21505;SDS011;10914;48.886;9.394;2023-09-19T13:08:17;20.40;;;19.40;;
21505;SDS011;10914;48.886;9.394;2023-09-19T13:10:59;21.65;;;20.55;;
21505;SDS011;10914;48.886;9.394;2023-09-19T13:13:24;23.02;;;21.90;;
21505;SDS011;10914;48.886;9.394;2023-09-19T13:15:53;20.02;;;19.02;;
21505;SDS011;10914;48.886;9.394;2023-09-19T13:18:18;18.88;;;17.88;;
21505;SDS011;10914;48.886;9.394;2023-09-19T13:20:53;17.65;;;16.83;;
21505;SDS011;10914;48.886;9.394;2023-09-19T13:23:30;17.45;;;16.65;;
21505;SDS011;10914;48.886;9.394;2023-09-19T13:25:55;20.50;;;19.40;;
21505;SDS011;10914;48.886;9.394;2023-09-19T13:28:21;18.73;;;17.77;;
21505;SDS011;10914;48.886;9.394;2023-09-19T13:30:46;18.05;;;17.15;;
21505;SDS011;10914;48.886;9.394;2023-09-19T13:33:13;18.98;;;18.08;;
21505;SDS011;10914;48.886;9.394;2023-09-19T13:35:44;20.33;;;19.33;;
21505;SDS011;10914;48.886;9.394;2023-09-19T13:38:09;17.40;;;16.50;;
21505;SDS011;10914;48.886;9.394;2023-09-19T13:40:36;17.77;;;16.77;;
21505;SDS011;10914;48.886;9.394;2023-09-19T13:43:04;19.73;;;18.77;;
21505;SDS011;10914;48.886;9.394;2023-09-19T13:45:31;19.23;;;18.33;;
21505;SDS011;10914;48.886;9.394;2023-09-19T13:47:57;19.73;;;18.80;;
21505;SDS011;10914;48.886;9.394;2023-09-19T13:50:24;17.95;;;16.95;;
21505;SDS011;10914;48.886;9.394;2023-09-19T13:52:50;16.80;;;16.00;;
21505;SDS011;10914;48.886;9.394;2023-09-19T13:55:16;17.67;;;16.77;;
21505;SDS011;10914;48.886;9.394;2023-09-19T13:57:45;16.45;;;15.65;;
21505;SDS011;10914;48.886;9.394;2023-09-19T14:00:10;16.77;;;15.73;;
21505;SDS011;10914;48.886;9.394;2023-09-19T14:02:35;15.55;;;14.55;;
21505;SDS011;10914;48.886;9.394;2023-09-19T14:05:00;18.43;;;17.43;;
21505;SDS011;10914;48.886;9.394;2023-09-19T14:07:26;14.48;;;13.77;;
21505;SDS011;10914;48.886;9.394;2023-09-19T14:09:51;15.07;;;14.27;;
21505;SDS011;10914;48.886;9.394;2023-09-19T14:12:17;15.77;;;15.00;;
21505;SDS011;10914;48.886;9.394;2023-09-19T14:14:43;15.43;;;14.63;;
21505;SDS011;10914;48.886;9.394;2023-09-19T14:17:10;14.98;;;14.07;;
21505;SDS011;10914;48.886;9.394;2023-09-19T14:19:35;15.17;;;14.30;;
21505;SDS011;10914;48.886;9.394;2023-09-19T14:22:01;14.30;;;13.60;;
21505;SDS011;10914;48.886;9.394;2023-09-19T14:24:32;15.80;;;15.00;;
21505;SDS011;10914;48.886;9.394;2023-09-19T14:26:57;15.10;;;14.30;;
21505;SDS011;10914;48.886;9.394;2023-09-19T14:29:22;14.97;;;14.23;;
21505;SDS011;10914;48.886;9.394;2023-09-19T14:31:47;15.03;;;14.30;;
21505;SDS011;10914;48.886;9.394;2023-09-19T14:34:13;15.90;;;15.10;;
21505;SDS011;10914;48.886;9.394;2023-09-19T14:36:39;15.27;;;14.30;;
21505;SDS011;10914;48.886;9.394;2023-09-19T14:39:05;16.60;;;15.60;;
21505;SDS011;10914;48.886;9.394;2023-09-19T14:41:30;18.70;;;17.70;;
21505;SDS011;10914;48.886;9.394;2023-09-19T14:43:56;17.52;;;16.52;;
21505;SDS011;10914;48.886;9.394;2023-09-19T14:46:22;16.23;;;15.43;;
21505;SDS011;10914;48.886;9.394;2023-09-19T14:48:49;18.45;;;17.55;;
21505;SDS011;10914;48.886;9.394;2023-09-19T14:51:14;17.63;;;16.75;;
21505;SDS011;10914;48.886;9.394;2023-09-19T14:53:40;17.13;;;16.23;;
21505;SDS011;10914;48.886;9.394;2023-09-19T14:56:07;16.50;;;15.65;;
21505;SDS011;10914;48.886;9.394;2023-09-19T14:58:32;17.27;;;16.30;;
21505;SDS011;10914;48.886;9.394;2023-09-19T15:03:30;17.23;;;15.95;;
21505;SDS011;10914;48.886;9.394;2023-09-19T15:05:59;16.92;;;15.82;;
21505;SDS011;10914;48.886;9.394;2023-09-19T15:08:25;16.23;;;15.43;;
21505;SDS011;10914;48.886;9.394;2023-09-19T15:10:50;17.87;;;16.90;;
21505;SDS011;10914;48.886;9.394;2023-09-19T15:13:17;18.20;;;17.40;;
21505;SDS011;10914;48.886;9.394;2023-09-19T15:15:43;18.77;;;17.80;;
21505;SDS011;10914;48.886;9.394;2023-09-19T15:18:09;19.63;;;18.52;;
21505;SDS011;10914;48.886;9.394;2023-09-19T15:20:42;18.45;;;17.55;;
21505;SDS011;10914;48.886;9.394;2023-09-19T15:23:07;19.90;;;18.90;;
21505;SDS011;10914;48.886;9.394;2023-09-19T15:25:32;18.98;;;18.08;;
21505;SDS011;10914;48.886;9.394;2023-09-19T15:27:57;18.70;;;17.80;;